Time;durP1;ratioP1;P1;durP2;ratioP2;P2;SDS_P1;SDS_P2;PMS_P1;PMS_P2;Temp;Humidity;BMP_temperature;BMP_pressure;BME280_temperature;BME280_humidity;BME280_pressure;Samples;Min_cycle;Max_cycle;Signal;HPM_P1;HPM_P2
2023/09/14 00:01:13;;;;;;;14.18;11.20;;;;;;;19.58;73.95;100965.41;5034470;28;20029;-45
2023/09/14 00:03:39;;;;;;;12.85;9.75;;;;;;;19.45;74.11;100966.69;5033619;28;20029;-44
2023/09/14 00:06:05;;;;;;;13.32;9.63;;;;;;;19.33;75.02;100963.38;5033532;28;20111;-43
2023/09/14 00:08:32;;;;;;;16.80;10.27;;;;;;;18.98;76.60;100968.25;5033533;28;20025;-46
2023/09/14 00:11:01;;;;;;;12.88;9.38;;;;;;;19.13;76.19;100970.28;5033464;28;20022;-45
2023/09/14 00:13:27;;;;;;;17.45;10.85;;;;;;;19.25;76.15;100976.31;5034124;28;20026;-44
2023/09/14 00:15:54;;;;;;;18.33;12.05;;;;;;;19.20;76.00;100965.44;5033707;28;20032;-43
2023/09/14 00:18:20;;;;;;;20.88;12.68;;;;;;;18.79;77.52;100963.47;5033392;28;20039;-44
2023/09/14 00:20:48;;;;;;;14.02;11.32;;;;;;;18.76;78.02;100961.25;5033179;28;20095;-44
2023/09/14 00:23:14;;;;;;;17.70;11.40;;;;;;;18.66;78.52;100970.13;5033208;28;20025;-44
2023/09/14 00:25:40;;;;;;;13.88;10.75;;;;;;;18.64;78.19;100964.09;5033450;28;20493;-44
2023/09/14 00:28:07;;;;;;;16.23;11.52;;;;;;;18.47;79.44;100966.91;5033192;28;20026;-46
2023/09/14 00:30:34;;;;;;;17.90;12.65;;;;;;;18.35;80.14;100956.22;5033246;28;20052;-44
2023/09/14 00:33:00;;;;;;;19.90;12.30;;;;;;;18.48;79.57;100957.72;5032748;28;20030;-44
2023/09/14 00:35:26;;;;;;;15.77;11.48;;;;;;;18.50;79.81;100949.34;5032907;28;20044;-43
2023/09/14 00:37:53;;;;;;;15.75;11.80;;;;;;;18.25;80.99;100956.13;5033703;28;20158;-44
2023/09/14 00:40:19;;;;;;;15.13;11.07;;;;;;;17.98;82.32;100958.78;5033061;28;20018;-44
2023/09/14 00:42:53;;;;;;;15.75;11.30;;;;;;;17.87;82.88;100957.84;5032951;28;20044;-44
2023/09/14 00:45:22;;;;;;;12.40;10.32;;;;;;;18.00;82.00;100964.78;5033285;28;20488;-42
2023/09/14 00:47:57;;;;;;;14.27;10.55;;;;;;;17.87;82.83;100965.13;5032987;28;20113;-43
2023/09/14 00:50:23;;;;;;;13.88;11.32;;;;;;;17.87;83.60;100959.72;5033003;28;20247;-42
2023/09/14 00:53:12;;;;;;;15.82;10.05;;;;;;;18.02;82.91;100959.91;5032826;28;20104;-43
2023/09/14 00:55:39;;;;;;;12.50;10.55;;;;;;;17.90;82.87;100965.47;5033194;28;20037;-43
2023/09/14 00:58:06;;;;;;;11.57;10.40;;;;;;;17.84;83.25;100962.94;5032502;28;20028;-43
2023/09/14 01:00:32;;;;;;;13.13;9.38;;;;;;;17.78;83.33;100966.66;5033127;28;20222;-43
2023/09/14 01:02:59;;;;;;;15.65;10.20;;;;;;;17.81;83.49;100964.25;5032784;28;20113;-43
2023/09/14 01:05:28;;;;;;;14.25;10.40;;;;;;;17.69;83.64;100961.63;5032643;28;20028;-43
2023/09/14 01:07:55;;;;;;;14.75;10.75;;;;;;;17.66;84.35;100964.03;5032803;28;20064;-45
2023/09/14 01:10:21;;;;;;;12.30;10.68;;;;;;;17.65;84.64;100970.50;5033026;28;20520;-43
2023/09/14 01:12:48;;;;;;;14.65;10.23;;;;;;;17.54;84.73;100972.25;5032706;28;20466;-44
2023/09/14 01:15:21;;;;;;;13.77;10.52;;;;;;;17.38;85.41;100970.41;5032753;28;20608;-43
2023/09/14 01:18:05;;;;;;;15.23;10.25;;;;;;;17.39;85.83;100972.84;5032974;28;20025;-44
2023/09/14 01:20:40;;;;;;;16.20;11.32;;;;;;;17.31;85.72;100978.66;5032825;28;20087;-45
2023/09/14 01:23:28;;;;;;;18.40;11.65;;;;;;;17.36;85.77;100975.22;5033437;28;20458;-44
2023/09/14 01:25:55;;;;;;;17.42;12.57;;;;;;;17.25;86.50;100973.44;5032690;28;20029;-43
2023/09/14 01:28:22;;;;;;;14.27;11.05;;;;;;;17.30;86.61;100973.50;5032461;28;20021;-44
2023/09/14 01:30:48;;;;;;;17.63;10.80;;;;;;;17.30;86.70;100979.75;5033432;28;20062;-46
2023/09/14 01:33:15;;;;;;;15.85;10.90;;;;;;;17.29;87.34;100977.28;5033510;28;20519;-44
2023/09/14 01:36:05;;;;;;;16.02;12.13;;;;;;;17.25;87.40;100982.38;5032622;28;20076;-45
2023/09/14 01:38:32;;;;;;;19.60;11.15;;;;;;;17.07;88.33;100982.63;5032643;28;20036;-44
2023/09/14 01:41:00;;;;;;;9.27;7.80;;;;;;;17.10;86.66;100969.44;5032552;28;20052;-42
2023/09/14 01:43:26;;;;;;;13.52;8.27;;;;;;;17.06;86.61;100983.69;5032818;28;20030;-44
2023/09/14 01:45:53;;;;;;;10.55;7.80;;;;;;;17.06;86.34;100983.69;5032942;28;20022;-46
2023/09/14 01:48:21;;;;;;;10.30;7.63;;;;;;;16.91;87.71;100986.13;5032310;28;20026;-43
2023/09/14 01:50:47;;;;;;;10.35;8.50;;;;;;;16.83;88.39;100992.78;5032881;28;20030;-44
2023/09/14 01:53:13;;;;;;;9.52;7.20;;;;;;;16.75;87.82;100987.75;5032462;28;20103;-44
2023/09/14 01:55:40;;;;;;;8.00;7.07;;;;;;;16.73;88.56;100995.28;5032726;28;20030;-44
2023/09/14 01:58:06;;;;;;;12.75;7.88;;;;;;;16.64;89.02;101001.03;5032622;28;20021;-44
2023/09/14 02:00:33;;;;;;;9.88;7.22;;;;;;;16.59;90.69;100989.31;5032330;28;20033;-44
2023/09/14 02:02:59;;;;;;;15.32;7.88;;;;;;;16.62;89.95;100994.25;5032233;28;20107;-43
2023/09/14 02:05:25;;;;;;;12.77;8.82;;;;;;;16.45;91.06;100996.09;5032229;28;20026;-47
2023/09/14 02:07:52;;;;;;;11.10;7.43;;;;;;;16.57;90.32;100997.66;5032330;28;20385;-41
2023/09/14 02:10:21;;;;;;;8.88;6.78;;;;;;;16.63;90.00;100993.19;5035340;28;20085;-43
2023/09/14 02:12:48;;;;;;;9.45;7.72;;;;;;;16.35;91.77;100997.53;5035690;28;20025;-43
2023/09/14 02:15:15;;;;;;;9.02;7.68;;;;;;;16.36;91.96;100998.34;5036013;28;20061;-43
2023/09/14 02:17:41;;;;;;;10.65;7.35;;;;;;;16.37;92.14;100991.88;5035750;28;20021;-43
2023/09/14 02:20:08;;;;;;;11.52;8.90;;;;;;;16.27;92.91;100999.81;5035906;28;20454;-44
2023/09/14 02:22:35;;;;;;;9.27;8.15;;;;;;;16.25;93.30;100988.41;5035539;28;20079;-43
2023/09/14 02:25:02;;;;;;;10.93;9.40;;;;;;;16.10;93.94;100997.00;5035765;28;20033;-43
2023/09/14 02:27:29;;;;;;;14.07;10.23;;;;;;;16.05;94.75;101003.13;5035611;28;20108;-46
2023/09/14 02:29:55;;;;;;;14.45;9.52;;;;;;;16.11;93.97;101004.06;5035484;28;20029;-42
2023/09/14 02:32:22;;;;;;;15.30;9.57;;;;;;;16.05;94.55;100997.75;5035492;28;20061;-45
2023/09/14 02:34:48;;;;;;;13.02;9.80;;;;;;;15.90;95.96;101000.09;5035650;28;20061;-44
2023/09/14 02:37:15;;;;;;;11.85;9.02;;;;;;;15.96;95.69;101009.94;5035694;28;20033;-45
2023/09/14 02:39:41;;;;;;;11.15;8.38;;;;;;;16.15;94.54;101015.19;5036167;28;20022;-43
2023/09/14 02:42:08;;;;;;;11.93;8.70;;;;;;;16.06;94.61;101014.75;5035389;28;20021;-44
2023/09/14 02:44:37;;;;;;;11.52;8.50;;;;;;;16.04;94.63;101009.56;5035799;28;20053;-45
2023/09/14 02:47:03;;;;;;;10.52;8.43;;;;;;;15.92;95.22;101002.56;5035380;28;20025;-44
2023/09/14 02:49:30;;;;;;;10.05;8.75;;;;;;;15.98;95.32;101009.72;5035208;28;20029;-44
2023/09/14 02:51:56;;;;;;;10.93;8.23;;;;;;;15.90;94.84;101002.00;5035128;28;20026;-45
2023/09/14 02:54:22;;;;;;;12.32;8.38;;;;;;;16.05;94.28;101013.13;5035217;28;20072;-44
2023/09/14 02:56:49;;;;;;;10.70;8.43;;;;;;;15.87;94.94;101013.25;5035130;28;20473;-44
2023/09/14 02:59:18;;;;;;;15.00;8.25;;;;;;;16.02;93.82;101018.97;5035172;28;20549;-45
2023/09/14 03:01:44;;;;;;;10.02;7.72;;;;;;;16.03;93.45;101024.13;5034906;28;20029;-43
2023/09/14 03:04:12;;;;;;;11.23;9.68;;;;;;;15.74;94.94;101025.13;5034893;28;20043;-45
2023/09/14 03:06:39;;;;;;;9.55;8.25;;;;;;;15.67;95.44;101027.94;5034787;28;20083;-44
2023/09/14 03:09:05;;;;;;;9.15;7.63;;;;;;;15.69;94.60;101035.78;5034833;28;20474;-42
2023/09/14 03:11:31;;;;;;;9.75;8.07;;;;;;;15.61;95.41;101036.13;5034679;28;20108;-43
2023/09/14 03:13:58;;;;;;;8.85;7.18;;;;;;;15.57;95.43;101030.38;5034685;28;20032;-44
2023/09/14 03:16:24;;;;;;;9.00;7.40;;;;;;;15.58;94.96;101040.91;5034793;28;20064;-45
2023/09/14 03:18:50;;;;;;;13.35;7.32;;;;;;;15.57;95.55;101035.75;5034935;28;20068;-44
2023/09/14 03:21:27;;;;;;;10.32;8.07;;;;;;;15.55;95.66;101046.81;5033934;28;20470;-44
2023/09/14 03:23:53;;;;;;;10.50;7.63;;;;;;;15.59;95.37;101044.44;5034884;28;20033;-44
2023/09/14 03:26:20;;;;;;;10.52;7.57;;;;;;;15.42;96.68;101041.59;5034741;28;20091;-43
2023/09/14 03:28:49;;;;;;;10.07;7.10;;;;;;;15.40;96.63;101034.81;5034507;28;20143;-44
2023/09/14 03:31:16;;;;;;;9.43;6.78;;;;;;;15.44;96.81;101042.22;5033086;28;20370;-44
2023/09/14 03:33:45;;;;;;;10.30;7.50;;;;;;;15.47;96.36;101044.44;5017062;28;20384;-43
2023/09/14 03:36:16;;;;;;;6.75;6.05;;;;;;;15.57;96.42;101049.25;5034567;28;20444;-44
2023/09/14 03:38:43;;;;;;;10.32;6.95;;;;;;;15.52;96.91;101054.53;5034256;28;20033;-44
2023/09/14 03:41:12;;;;;;;9.98;6.88;;;;;;;15.44;96.86;101061.09;5034547;28;20026;-43
2023/09/14 03:43:40;;;;;;;9.35;6.55;;;;;;;15.49;97.16;101063.06;5033301;28;20061;-44
2023/09/14 03:46:07;;;;;;;7.40;6.28;;;;;;;15.38;97.75;101062.03;5034238;28;20045;-45
2023/09/14 03:48:34;;;;;;;7.38;6.65;;;;;;;15.41;97.69;101063.44;5034193;28;20038;-43
2023/09/14 03:51:01;;;;;;;11.70;7.07;;;;;;;15.49;97.05;101068.47;5049421;28;20026;-43
2023/09/14 03:53:28;;;;;;;7.75;6.20;;;;;;;15.44;97.65;101062.97;5033956;28;20071;-43
2023/09/14 03:55:55;;;;;;;10.50;7.43;;;;;;;15.49;96.32;101073.88;5033885;28;20042;-45
2023/09/14 03:58:23;;;;;;;6.82;6.13;;;;;;;15.39;97.24;101070.94;5033837;28;20108;-44
2023/09/14 04:00:49;;;;;;;7.80;6.25;;;;;;;15.50;96.56;101081.75;5033942;28;20048;-44
2023/09/14 04:03:19;;;;;;;8.77;6.93;;;;;;;15.34;97.53;101078.91;5033894;28;20037;-44
2023/09/14 04:05:45;;;;;;;7.60;6.80;;;;;;;15.19;98.30;101090.94;5033685;28;20025;-43
2023/09/14 04:08:12;;;;;;;6.97;6.35;;;;;;;15.35;96.75;101085.94;5034554;28;20025;-43
2023/09/14 04:10:40;;;;;;;8.63;7.07;;;;;;;15.42;96.78;101076.66;5034034;28;20030;-43
2023/09/14 04:13:35;;;;;;;9.90;7.47;;;;;;;15.41;96.93;101085.81;5034513;28;20029;-44
2023/09/14 04:16:03;;;;;;;9.45;6.70;;;;;;;15.27;97.04;101087.09;5033634;28;20032;-44
2023/09/14 04:18:38;;;;;;;8.23;7.00;;;;;;;15.37;97.11;101090.03;5033560;28;20026;-44
2023/09/14 04:21:05;;;;;;;12.23;8.38;;;;;;;15.28;98.34;101086.88;5033870;28;20013;-44
2023/09/14 04:23:32;;;;;;;11.25;9.55;;;;;;;15.16;99.02;101082.50;5033452;28;20478;-43
2023/09/14 04:26:03;;;;;;;11.57;9.15;;;;;;;15.25;98.06;101087.31;5033470;28;20055;-43
2023/09/14 04:28:30;;;;;;;10.20;8.18;;;;;;;15.24;97.81;101077.59;5033770;28;20028;-43
2023/09/14 04:30:59;;;;;;;8.57;7.68;;;;;;;15.27;98.34;101070.94;5033368;28;20029;-44
2023/09/14 04:33:25;;;;;;;9.15;8.05;;;;;;;15.11;99.11;101082.38;5014602;28;20041;-45
2023/09/14 04:36:00;;;;;;;8.68;7.75;;;;;;;14.96;99.63;101080.09;5033039;28;20069;-43
2023/09/14 04:38:26;;;;;;;;;;;;;;;15.06;99.92;101085.75;5033757;28;20037;-43
2023/09/14 04:40:53;;;;;;;9.30;7.88;;;;;;;15.13;99.20;101083.78;5033156;28;19917;-46
2023/09/14 04:43:22;;;;;;;8.15;6.85;;;;;;;15.10;99.69;101086.09;5033489;28;20030;-45
2023/09/14 04:45:48;;;;;;;8.77;7.90;;;;;;;15.01;100.00;101081.03;5033239;28;20034;-44
2023/09/14 04:48:15;;;;;;;12.35;7.68;;;;;;;14.89;100.00;101082.06;5033406;28;20466;-44
2023/09/14 04:50:42;;;;;;;9.60;7.40;;;;;;;15.08;100.00;101074.72;5033090;28;20021;-44
2023/09/14 04:53:09;;;;;;;8.27;7.30;;;;;;;15.05;100.00;101084.94;5032886;28;20025;-44
2023/09/14 04:55:35;;;;;;;10.82;7.30;;;;;;;15.04;100.00;101079.75;5032973;28;20101;-44
2023/09/14 04:58:01;;;;;;;12.23;7.90;;;;;;;15.05;99.95;101071.44;5033089;28;20025;-44
2023/09/14 05:00:27;;;;;;;8.45;7.45;;;;;;;15.15;99.07;101070.06;5033355;28;20104;-44
2023/09/14 05:02:54;;;;;;;9.80;7.82;;;;;;;14.86;100.00;101079.81;5033282;28;20087;-44
2023/09/14 05:05:20;;;;;;;8.73;7.80;;;;;;;14.96;100.00;101078.22;5033177;28;20457;-43
2023/09/14 05:07:46;;;;;;;9.43;8.38;;;;;;;15.12;100.00;101084.00;5032981;28;20105;-43
2023/09/14 05:10:13;;;;;;;9.70;8.30;;;;;;;15.02;100.00;101087.25;5032832;28;20025;-47
2023/09/14 05:12:39;;;;;;;12.63;8.57;;;;;;;14.87;100.00;101078.75;5032672;28;20029;-43
2023/09/14 05:15:06;;;;;;;9.20;7.25;;;;;;;15.10;100.00;101078.81;5032697;28;20113;-45
2023/09/14 05:17:32;;;;;;;8.73;7.72;;;;;;;15.07;100.00;101071.22;5032678;28;20397;-43
2023/09/14 05:19:59;;;;;;;9.35;7.53;;;;;;;15.08;100.00;101070.16;5032886;28;20437;-45
2023/09/14 05:22:25;;;;;;;13.90;9.00;;;;;;;15.08;99.82;101070.16;5032780;28;20037;-44
2023/09/14 05:24:52;;;;;;;11.48;8.63;;;;;;;15.07;100.00;101075.78;5032957;28;20030;-44
2023/09/14 05:27:19;;;;;;;9.02;8.10;;;;;;;15.09;100.00;101076.38;5032686;28;20079;-43
2023/09/14 05:29:45;;;;;;;10.32;8.00;;;;;;;14.88;100.00;101083.09;5032847;28;20032;-43
2023/09/14 05:32:11;;;;;;;8.23;7.40;;;;;;;14.99;100.00;101083.16;5032953;28;20060;-43
2023/09/14 05:34:38;;;;;;;8.90;7.07;;;;;;;14.84;100.00;101090.00;5032434;28;20025;-45
2023/09/14 05:37:04;;;;;;;9.45;7.85;;;;;;;14.84;100.00;101084.63;5032698;28;20429;-43
2023/09/14 05:39:30;;;;;;;11.75;7.60;;;;;;;14.95;100.00;101087.34;5033408;28;20524;-43
2023/09/14 05:41:56;;;;;;;9.32;6.85;;;;;;;14.86;100.00;101087.88;5032609;28;20030;-43
2023/09/14 05:44:23;;;;;;;8.80;7.45;;;;;;;14.69;100.00;101083.13;5034217;28;20033;-43
2023/09/14 05:46:49;;;;;;;9.50;7.05;;;;;;;14.80;100.00;101084.22;5036284;28;20477;-45
2023/09/14 05:49:15;;;;;;;8.57;6.93;;;;;;;14.79;100.00;101091.50;5036331;28;20084;-44
2023/09/14 05:51:41;;;;;;;8.63;6.72;;;;;;;14.78;100.00;101086.34;5036286;28;20057;-44
2023/09/14 05:54:08;;;;;;;10.23;7.75;;;;;;;14.63;100.00;101094.00;5036065;28;20389;-44
2023/09/14 05:56:34;;;;;;;7.82;6.70;;;;;;;14.76;100.00;101091.13;5036218;28;20474;-43
2023/09/14 05:59:01;;;;;;;9.68;6.55;;;;;;;14.79;100.00;101091.50;5036068;28;20029;-43
2023/09/14 06:01:27;;;;;;;8.13;6.35;;;;;;;14.80;100.00;101100.41;5036011;28;20029;-45
2023/09/14 06:03:53;;;;;;;8.48;6.22;;;;;;;14.71;100.00;101101.75;5036053;28;20414;-46
2023/09/14 06:06:20;;;;;;;7.90;6.65;;;;;;;14.80;100.00;101100.41;5036052;28;20021;-43
2023/09/14 06:08:46;;;;;;;9.52;6.13;;;;;;;14.89;100.00;101100.91;5051645;28;20033;-44
2023/09/14 06:11:12;;;;;;;7.30;6.25;;;;;;;14.82;100.00;101105.56;5035860;28;20083;-45
2023/09/14 06:13:39;;;;;;;9.00;7.05;;;;;;;14.78;100.00;101097.13;5036323;28;20037;-44
2023/09/14 06:16:05;;;;;;;9.55;7.72;;;;;;;14.83;100.00;101094.56;5036108;28;20099;-44
2023/09/14 06:18:31;;;;;;;12.80;8.52;;;;;;;14.79;100.00;101094.19;5035714;28;20026;-43
2023/09/14 06:20:57;;;;;;;13.75;8.30;;;;;;;14.79;100.00;101088.81;5018044;28;20397;-43
2023/09/14 06:23:24;;;;;;;10.68;7.63;;;;;;;15.02;100.00;101098.84;5035631;28;20442;-44
2023/09/14 06:25:53;;;;;;;11.10;8.73;;;;;;;14.89;100.00;101085.56;5035713;28;20540;-44
2023/09/14 06:28:19;;;;;;;10.35;7.95;;;;;;;14.75;100.00;101086.78;5036007;28;20026;-44
2023/09/14 06:30:45;;;;;;;11.15;7.78;;;;;;;14.88;100.00;101083.94;5035599;28;20469;-44
2023/09/14 06:33:12;;;;;;;10.10;7.85;;;;;;;14.78;100.00;101084.47;5034102;28;20394;-43
2023/09/14 06:35:38;;;;;;;12.80;9.23;;;;;;;14.82;100.00;101079.44;5035190;28;20513;-43
2023/09/14 06:38:04;;;;;;;9.88;8.27;;;;;;;14.80;100.00;101089.63;5035360;28;20473;-43
2023/09/14 06:40:31;;;;;;;9.45;7.55;;;;;;;14.78;100.00;101079.09;5035383;28;20135;-43
2023/09/14 06:42:58;;;;;;;8.15;6.13;;;;;;;14.79;100.00;101082.59;5035185;28;20478;-45
2023/09/14 06:45:24;;;;;;;8.63;6.60;;;;;;;14.81;100.00;101083.19;5034081;28;20425;-43
2023/09/14 06:47:51;;;;;;;8.68;5.93;;;;;;;14.86;100.00;101077.09;5036283;28;20461;-45
2023/09/14 06:50:17;;;;;;;7.40;5.82;;;;;;;14.84;100.00;101085.44;5035383;28;20029;-44
2023/09/14 06:52:44;;;;;;;9.65;7.05;;;;;;;14.80;100.00;101081.53;5035310;28;20021;-43
2023/09/14 06:55:10;;;;;;;11.45;6.82;;;;;;;14.82;100.00;101082.13;5034143;28;20025;-43
2023/09/14 06:57:36;;;;;;;9.95;7.53;;;;;;;14.81;100.00;101085.88;5034621;28;20029;-42
2023/09/14 07:00:08;;;;;;;12.65;8.73;;;;;;;14.84;100.00;101085.44;5034966;28;20033;-43
2023/09/14 07:02:34;;;;;;;9.82;8.77;;;;;;;14.84;100.00;101090.81;5034777;28;20060;-43
2023/09/14 07:05:00;;;;;;;10.48;8.27;;;;;;;14.74;100.00;101087.84;5034793;28;20044;-43
2023/09/14 07:07:27;;;;;;;9.70;7.63;;;;;;;14.82;100.00;101084.00;5034723;28;20037;-42
2023/09/14 07:09:53;;;;;;;8.40;7.20;;;;;;;14.78;100.00;101089.84;5034746;28;20033;-42
2023/09/14 07:12:19;;;;;;;10.20;7.72;;;;;;;14.82;100.00;101089.38;5049989;28;20018;-42
2023/09/14 07:14:46;;;;;;;13.88;8.27;;;;;;;14.80;100.00;101089.63;5034628;28;20048;-42
2023/09/14 07:17:12;;;;;;;9.38;7.30;;;;;;;14.84;100.00;101088.13;5034520;28;20482;-43
2023/09/14 07:19:38;;;;;;;8.52;7.43;;;;;;;14.89;100.00;101092.84;5034499;28;20037;-45
2023/09/14 07:22:04;;;;;;;9.00;7.38;;;;;;;14.87;100.00;101095.75;5034581;28;20025;-46
2023/09/14 07:24:32;;;;;;;9.35;7.10;;;;;;;14.87;100.00;101101.13;5034404;28;20124;-42
2023/09/14 07:26:59;;;;;;;10.18;7.68;;;;;;;14.95;100.00;101098.13;5034402;28;20501;-46
2023/09/14 07:29:26;;;;;;;9.02;7.13;;;;;;;14.88;100.00;101100.09;5034342;28;20033;-42
2023/09/14 07:31:53;;;;;;;9.15;6.75;;;;;;;14.83;100.00;101096.44;5034209;28;20033;-46
2023/09/14 07:34:19;;;;;;;7.53;6.60;;;;;;;14.84;100.00;101100.78;5034222;28;20029;-43
2023/09/14 07:36:46;;;;;;;8.45;7.00;;;;;;;14.89;100.00;101100.91;5034127;28;20502;-42
2023/09/14 07:39:12;;;;;;;8.38;6.40;;;;;;;14.88;100.00;101099.25;5034039;28;20080;-43
2023/09/14 07:41:38;;;;;;;8.88;5.95;;;;;;;14.93;99.75;101102.09;5034067;28;20409;-44
2023/09/14 07:44:05;;;;;;;7.70;6.60;;;;;;;14.92;99.39;101101.28;5034263;28;20142;-43
2023/09/14 07:46:32;;;;;;;7.05;6.35;;;;;;;14.91;99.93;101101.50;5034049;28;20021;-42
2023/09/14 07:48:59;;;;;;;11.13;6.22;;;;;;;14.89;100.00;101098.22;5034223;28;20027;-42
2023/09/14 07:51:26;;;;;;;9.68;6.50;;;;;;;14.77;100.00;101103.56;5033870;28;20025;-46
2023/09/14 07:53:53;;;;;;;6.82;4.93;;;;;;;14.87;100.00;101101.13;5034008;28;20041;-44
2023/09/14 07:56:19;;;;;;;7.65;6.18;;;;;;;14.77;100.00;101096.31;5033881;28;20025;-43
2023/09/14 07:58:46;;;;;;;7.13;5.15;;;;;;;14.81;100.00;101101.22;5033721;28;20109;-44
2023/09/14 08:01:12;;;;;;;6.65;5.22;;;;;;;14.88;100.00;101102.78;5033636;28;20044;-42
2023/09/14 08:03:38;;;;;;;8.88;5.93;;;;;;;14.92;100.00;101098.56;5033979;28;20504;-43
2023/09/14 08:06:05;;;;;;;7.43;5.35;;;;;;;14.91;100.00;101105.03;5033533;28;20086;-44
2023/09/14 08:08:33;;;;;;;8.75;6.07;;;;;;;14.94;100.00;101101.06;5033519;28;20466;-43
2023/09/14 08:11:00;;;;;;;10.23;6.28;;;;;;;14.90;100.00;101100.69;5033565;28;20026;-42
2023/09/14 08:13:26;;;;;;;11.15;6.95;;;;;;;14.80;100.00;101097.72;5033418;28;20112;-42
2023/09/14 08:15:53;;;;;;;8.88;6.22;;;;;;;14.80;100.00;101097.72;5033434;28;20021;-43
2023/09/14 08:18:20;;;;;;;10.98;6.72;;;;;;;14.75;100.00;101100.25;5033698;28;20031;-43
2023/09/14 08:20:49;;;;;;;7.45;6.28;;;;;;;14.81;100.00;101091.25;5033732;28;20424;-43
2023/09/14 08:23:16;;;;;;;6.72;5.50;;;;;;;14.85;100.00;101097.84;5033342;28;20021;-42
2023/09/14 08:25:46;;;;;;;4.97;4.47;;;;;;;14.80;100.00;101100.41;5033243;28;20074;-43
2023/09/14 08:28:19;;;;;;;5.68;5.07;;;;;;;14.84;100.00;101098.09;5033185;28;20031;-43
2023/09/14 08:30:47;;;;;;;5.90;5.25;;;;;;;14.88;100.00;101102.78;5033335;28;20029;-44
2023/09/14 08:33:15;;;;;;;5.32;4.00;;;;;;;14.76;100.00;101091.94;5032972;28;20028;-45
2023/09/14 08:35:47;;;;;;;4.53;3.72;;;;;;;14.77;100.00;101095.47;5032856;28;20041;-44
2023/09/14 08:38:14;;;;;;;7.20;4.15;;;;;;;14.75;100.00;101100.25;5033090;28;20040;-43
2023/09/14 08:40:42;;;;;;;4.25;3.85;;;;;;;14.88;100.00;101097.41;5033133;28;20045;-42
2023/09/14 08:43:12;;;;;;;5.68;3.92;;;;;;;14.84;100.00;101092.69;5033084;28;20097;-44
2023/09/14 08:45:42;;;;;;;5.47;4.57;;;;;;;14.83;100.00;101094.56;5032892;28;20025;-44
2023/09/14 08:48:11;;;;;;;5.15;4.03;;;;;;;14.87;100.00;101100.31;5032860;28;20024;-42
2023/09/14 08:50:39;;;;;;;5.57;4.43;;;;;;;14.95;100.00;101103.53;5032959;28;20108;-43
2023/09/14 08:53:06;;;;;;;5.00;4.10;;;;;;;14.94;100.00;101093.81;5032911;28;20482;-43
2023/09/14 08:55:34;;;;;;;6.00;4.40;;;;;;;14.98;100.00;101100.34;5032933;28;20513;-42
2023/09/14 08:58:02;;;;;;;5.32;3.90;;;;;;;14.91;100.00;101096.13;5033154;28;20072;-44
2023/09/14 09:00:30;;;;;;;8.50;4.80;;;;;;;14.87;100.00;101097.63;5032852;28;20021;-42
2023/09/14 09:02:57;;;;;;;4.90;4.10;;;;;;;14.91;99.93;101098.81;5032727;28;20034;-43
2023/09/14 09:05:27;;;;;;;5.75;4.22;;;;;;;14.91;100.00;101105.03;5032767;28;20021;-43
2023/09/14 09:07:55;;;;;;;6.28;4.80;;;;;;;14.94;100.00;101099.19;5032668;28;20068;-44
2023/09/14 09:10:22;;;;;;;6.05;4.40;;;;;;;15.03;100.00;101099.66;5032717;28;20033;-42
2023/09/14 09:12:59;;;;;;;7.85;4.97;;;;;;;14.96;100.00;101094.38;5032673;28;20052;-45
2023/09/14 09:15:30;;;;;;;5.80;4.30;;;;;;;14.95;100.00;101095.44;5033193;28;20105;-44
2023/09/14 09:18:07;;;;;;;7.05;4.78;;;;;;;14.94;100.00;101096.50;5032901;28;20033;-42
2023/09/14 09:20:36;;;;;;;8.68;5.63;;;;;;;14.85;100.00;101095.16;5036886;28;20060;-45
2023/09/14 09:23:03;;;;;;;5.43;4.60;;;;;;;14.81;100.00;101088.56;5036707;28;20035;-42
2023/09/14 09:25:42;;;;;;;7.97;4.90;;;;;;;14.81;100.00;101091.25;5037000;28;20095;-46
2023/09/14 09:28:08;;;;;;;9.23;6.57;;;;;;;14.77;100.00;101084.72;5036997;28;20092;-42
2023/09/14 09:30:35;;;;;;;7.28;6.03;;;;;;;14.45;100.00;101081.34;5036765;28;20025;-43
2023/09/14 09:33:03;;;;;;;7.97;6.00;;;;;;;14.59;100.00;101093.63;5036593;28;20080;-43
2023/09/14 09:35:30;;;;;;;5.40;4.68;;;;;;;14.69;100.00;101090.41;5036388;28;20050;-42
2023/09/14 09:38:00;;;;;;;5.93;4.72;;;;;;;14.72;100.00;101095.34;5036390;28;20033;-43
2023/09/14 09:40:32;;;;;;;6.88;5.45;;;;;;;14.71;100.00;101096.38;5036978;28;20473;-42
2023/09/14 09:43:04;;;;;;;5.55;4.47;;;;;;;14.61;100.00;101094.22;5036297;28;20041;-42
2023/09/14 09:45:30;;;;;;;6.00;4.50;;;;;;;14.53;100.00;101086.44;5036208;28;20029;-42
2023/09/14 09:48:00;;;;;;;5.07;4.57;;;;;;;14.63;100.00;101083.22;5036131;28;20029;-43
2023/09/14 09:50:27;;;;;;;5.78;4.65;;;;;;;14.58;100.00;101086.59;5036890;28;20068;-43
2023/09/14 09:52:53;;;;;;;5.35;4.85;;;;;;;14.56;100.00;101082.50;5036033;28;20105;-42
2023/09/14 09:55:30;;;;;;;6.50;5.05;;;;;;;14.45;100.00;101084.84;5036184;28;20032;-41
2023/09/14 09:57:59;;;;;;;5.53;4.93;;;;;;;14.39;100.00;101093.84;5035993;28;20504;-42
2023/09/14 10:00:36;;;;;;;7.03;5.15;;;;;;;14.48;100.00;101086.28;5036064;28;20033;-42
2023/09/14 10:03:03;;;;;;;6.25;5.00;;;;;;;14.51;100.00;101083.97;5035982;28;20036;-43
2023/09/14 10:05:33;;;;;;;7.13;5.55;;;;;;;14.44;100.00;101083.22;5035986;28;20060;-43
2023/09/14 10:08:02;;;;;;;5.10;4.45;;;;;;;14.40;100.00;101083.88;5035804;28;20022;-42
2023/09/14 10:10:33;;;;;;;5.32;4.72;;;;;;;14.49;100.00;101086.09;5035751;28;20075;-42
2023/09/14 10:13:00;;;;;;;6.57;5.13;;;;;;;14.52;100.00;101091.00;5035889;28;20493;-42
2023/09/14 10:15:27;;;;;;;11.73;5.60;;;;;;;14.51;100.00;101094.75;5035758;28;20021;-43
2023/09/14 10:17:58;;;;;;;6.97;5.65;;;;;;;14.51;100.00;101078.59;5036003;28;20053;-43
2023/09/14 10:20:28;;;;;;;6.00;5.15;;;;;;;14.62;100.00;101095.06;5035608;28;20029;-42
2023/09/14 10:22:59;;;;;;;6.30;5.55;;;;;;;14.51;100.00;101096.63;5036057;28;20032;-42
2023/09/14 10:25:28;;;;;;;6.35;5.38;;;;;;;14.61;100.00;101090.72;5035548;28;20074;-42
2023/09/14 10:27:54;;;;;;;6.43;5.38;;;;;;;14.65;100.00;101091.88;5035748;28;20017;-42
2023/09/14 10:30:21;;;;;;;6.60;5.63;;;;;;;14.64;100.00;101095.63;5035385;28;20025;-42
2023/09/14 10:32:49;;;;;;;6.20;5.55;;;;;;;14.59;100.00;101096.31;5035687;28;20435;-42
2023/09/14 10:35:17;;;;;;;7.32;5.57;;;;;;;14.57;100.00;101094.91;5035525;28;20045;-42
2023/09/14 10:37:45;;;;;;;5.43;4.93;;;;;;;14.65;100.00;101097.28;5035603;28;20037;-43
2023/09/14 10:40:14;;;;;;;6.72;5.07;;;;;;;14.67;100.00;101106.78;5035275;28;20433;-42
2023/09/14 10:42:41;;;;;;;5.85;4.93;;;;;;;14.70;100.00;101110.91;5035316;28;20035;-42
2023/09/14 10:45:09;;;;;;;5.95;5.10;;;;;;;14.65;100.00;101097.28;5035791;28;20030;-42
2023/09/14 10:47:38;;;;;;;6.60;5.30;;;;;;;14.57;100.00;101101.13;5035086;28;20100;-44
2023/09/14 10:50:06;;;;;;;7.75;5.63;;;;;;;14.67;100.00;101100.59;5035014;28;20025;-43
2023/09/14 10:52:33;;;;;;;6.88;5.82;;;;;;;14.63;100.00;101102.09;5034895;28;20088;-43
2023/09/14 10:55:00;;;;;;;7.47;5.30;;;;;;;14.71;100.00;101099.91;5034975;28;20079;-42
2023/09/14 10:57:29;;;;;;;8.48;6.28;;;;;;;14.46;100.00;101094.56;5035007;28;20067;-43
2023/09/14 11:00:01;;;;;;;7.13;5.85;;;;;;;14.35;100.00;101091.81;5035073;28;20501;-43
2023/09/14 11:02:39;;;;;;;6.32;5.10;;;;;;;14.60;100.00;101099.81;5035216;28;20057;-42
2023/09/14 11:05:23;;;;;;;6.05;5.15;;;;;;;14.65;100.00;101089.19;5034744;28;20057;-42
2023/09/14 11:07:59;;;;;;;5.55;4.68;;;;;;;14.70;100.00;101100.13;5034757;28;20478;-43
2023/09/14 11:10:27;;;;;;;6.22;5.13;;;;;;;14.59;100.00;101096.31;5034706;28;20397;-43
2023/09/14 11:13:19;;;;;;;5.82;5.20;;;;;;;14.76;100.00;101093.81;5034572;28;20026;-42
2023/09/14 11:15:47;;;;;;;6.65;5.10;;;;;;;14.74;100.00;101093.22;5034773;28;20036;-42
2023/09/14 11:18:32;;;;;;;5.20;4.40;;;;;;;14.72;100.00;101100.72;5034466;28;20017;-43
2023/09/14 11:20:58;;;;;;;7.13;5.28;;;;;;;14.70;100.00;101100.94;5034611;28;20040;-43